createdAt,value
2022-09-17T00:02:03.223Z,83.29
2022-09-17T00:07:05.293Z,83.17
2022-09-17T00:12:07.237Z,83.13
2022-09-17T00:17:08.977Z,83.28
2022-09-17T00:22:30.445Z,83.38
2022-09-17T00:27:34.219Z,83.03
2022-09-17T00:32:35.968Z,82.79
2022-09-17T00:37:37.852Z,82.71
2022-09-17T00:42:39.616Z,82.46
2022-09-17T00:47:58.689Z,82.43
2022-09-17T00:53:20.763Z,82.84
2022-09-17T00:58:23.475Z,82.95
2022-09-17T01:03:37.631Z,83.22
2022-09-17T01:09:08.470Z,83.52
2022-09-17T01:14:57.336Z,83.36
2022-09-17T01:20:23.092Z,82.83
2022-09-17T01:25:38.293Z,83.06
2022-09-17T01:30:51.979Z,83.37
2022-09-17T01:36:17.878Z,83.54
2022-09-17T01:41:38.633Z,83.75
2022-09-17T01:46:46.650Z,83.83
2022-09-17T01:51:53.150Z,83.99
2022-09-17T01:57:02.112Z,84.15
2022-09-17T02:02:32.805Z,84.33
2022-09-17T02:07:42.391Z,84.55
2022-09-17T02:12:50.006Z,84.58
2022-09-17T02:17:58.918Z,84.66
2022-09-17T02:23:08.651Z,84.57
2022-09-17T02:28:41.587Z,84.48
2022-09-17T02:33:55.935Z,84.36
2022-09-17T02:39:01.827Z,84.31
2022-09-17T02:44:18.630Z,84.21
2022-09-17T02:50:00.346Z,84.13
2022-09-17T02:55:43.205Z,84.03
2022-09-17T03:00:46.506Z,84.24
2022-09-17T03:05:49.520Z,84.31
2022-09-17T03:10:51.395Z,84.18
2022-09-17T03:16:06.585Z,83.97
2022-09-17T03:21:12.665Z,83.79
2022-09-17T03:26:14.596Z,83.85
2022-09-17T03:31:16.469Z,83.81
2022-09-17T03:36:19.574Z,83.73
2022-09-17T03:41:21.603Z,83.86
2022-09-17T03:46:23.386Z,83.97
2022-09-17T03:51:25.560Z,83.96
2022-09-17T03:56:27.333Z,83.95
2022-09-17T04:01:29.377Z,83.73
2022-09-17T04:06:31.583Z,83.80
2022-09-17T04:11:33.565Z,83.77
2022-09-17T04:16:35.613Z,83.85
2022-09-17T04:21:37.461Z,83.93
2022-09-17T04:26:39.272Z,84.18
2022-09-17T04:31:41.166Z,84.26
2022-09-17T04:36:42.918Z,84.31
2022-09-17T04:41:44.641Z,84.08
2022-09-17T04:46:46.477Z,83.44
2022-09-17T04:51:48.381Z,83.61
2022-09-17T04:56:50.528Z,83.88
2022-09-17T05:01:52.350Z,83.81
2022-09-17T05:06:54.170Z,83.76
2022-09-17T05:12:12.048Z,83.38
2022-09-17T05:17:13.672Z,82.57
2022-09-17T05:22:21.432Z,81.52
2022-09-17T05:27:23.510Z,80.97
2022-09-17T05:32:25.536Z,81.24
2022-09-17T05:37:27.237Z,81.68
2022-09-17T05:42:29.475Z,82.05
2022-09-17T05:47:31.224Z,82.23
2022-09-17T05:52:33.247Z,82.37
2022-09-17T05:57:35.023Z,82.41
2022-09-17T06:02:37.231Z,82.24
2022-09-17T06:07:39.254Z,82.07
2022-09-17T06:12:40.914Z,81.85
2022-09-17T06:17:43.551Z,81.56
2022-09-17T06:22:45.593Z,81.31
2022-09-17T06:27:47.417Z,81.14
2022-09-17T06:32:49.878Z,81.19
2022-09-17T06:38:11.448Z,81.23
2022-09-17T06:43:21.829Z,81.12
2022-09-17T06:48:24.715Z,80.92
2022-09-17T06:53:26.418Z,80.59
2022-09-17T06:58:30.025Z,79.65
2022-09-17T07:03:35.889Z,78.65
2022-09-17T07:08:38.476Z,78.20
2022-09-17T07:13:40.352Z,78.20
2022-09-17T07:18:42.235Z,77.80
2022-09-17T07:23:44.781Z,76.77
2022-09-17T07:29:06.429Z,76.09
2022-09-17T07:34:22.146Z,72.85
2022-09-17T07:39:23.842Z,71.83
2022-09-17T07:44:30.266Z,69.62
2022-09-17T07:49:32.304Z,70.05
2022-09-17T07:54:34.573Z,69.89
2022-09-17T07:59:36.667Z,69.62
2022-09-17T08:04:38.552Z,68.75
2022-09-17T08:09:59.272Z,66.05
2022-09-17T08:15:01.612Z,62.99
2022-09-17T08:20:03.617Z,62.34
2022-09-17T08:25:06.750Z,60.64
2022-09-17T08:30:09.339Z,58.56
2022-09-17T08:35:11.961Z,60.25
2022-09-17T08:40:21.321Z,61.28
2022-09-17T08:45:34.888Z,62.02
2022-09-17T08:50:42.067Z,61.94
2022-09-17T08:56:00.912Z,60.15
2022-09-17T09:01:23.961Z,59.34
2022-09-17T09:06:32.926Z,59.34
2022-09-17T09:11:41.569Z,59.39
2022-09-17T09:16:56.722Z,59.52
2022-09-17T09:22:26.120Z,58.18
2022-09-17T09:27:29.455Z,57.95
2022-09-17T09:32:40.383Z,59.54
2022-09-17T09:38:14.100Z,61.05
2022-09-17T09:44:03.683Z,61.14
2022-09-17T09:49:50.227Z,61.16
2022-09-17T09:55:01.080Z,61.93
2022-09-17T10:00:38.861Z,62.37
2022-09-17T10:05:59.217Z,61.32
2022-09-17T10:11:16.968Z,61.12
2022-09-17T10:16:21.744Z,59.95
2022-09-17T10:21:32.565Z,59.87
2022-09-17T10:26:37.110Z,59.52
2022-09-17T10:31:55.021Z,60.48
2022-09-17T10:36:58.564Z,62.01
2022-09-17T10:42:22.120Z,63.03
2022-09-17T10:47:30.533Z,64.14
2022-09-17T10:52:34.475Z,65.65
2022-09-17T10:58:10.344Z,66.83
2022-09-17T11:03:43.770Z,67.07
2022-09-17T11:09:16.231Z,66.39
2022-09-17T11:14:49.530Z,65.27
2022-09-17T11:20:39.965Z,63.37
2022-09-17T11:25:57.150Z,62.99
2022-09-17T11:31:39.844Z,63.64
2022-09-17T11:37:00.379Z,64.31
2022-09-17T11:42:07.857Z,62.72
2022-09-17T11:47:17.400Z,63.32
2022-09-17T11:52:25.788Z,63.34
2022-09-17T11:57:35.341Z,63.72
2022-09-17T12:03:06.876Z,63.86
2022-09-17T12:08:24.074Z,61.65
2022-09-17T12:13:51.106Z,61.29
2022-09-17T12:19:01.103Z,60.71
2022-09-17T12:24:28.672Z,60.82
2022-09-17T12:29:45.784Z,61.27
2022-09-17T12:35:15.073Z,59.31
2022-09-17T12:40:36.123Z,59.59
2022-09-17T12:45:50.442Z,59.69
2022-09-17T12:51:27.800Z,59.77
2022-09-17T12:56:51.111Z,59.17
2022-09-17T13:02:05.326Z,59.82
2022-09-17T13:07:26.234Z,60.11
2022-09-17T13:12:33.710Z,59.71
2022-09-17T13:18:31.396Z,59.93
2022-09-17T13:23:43.913Z,60.36
2022-09-17T13:28:52.514Z,60.24
2022-09-17T13:33:57.495Z,59.83
2022-09-17T13:39:01.712Z,59.67
2022-09-17T13:44:06.178Z,60.17
2022-09-17T13:49:16.939Z,59.49
2022-09-17T13:54:21.311Z,58.45
2022-09-17T13:59:27.930Z,58.35
2022-09-17T14:04:41.845Z,58.30
2022-09-17T14:09:50.339Z,58.83
2022-09-17T14:14:52.743Z,60.10
2022-09-17T14:19:55.521Z,60.59
2022-09-17T14:24:58.423Z,60.78
2022-09-17T14:30:12.934Z,61.07
2022-09-17T14:35:20.611Z,61.54
2022-09-17T14:40:59.423Z,62.63
2022-09-17T14:46:07.063Z,63.45
2022-09-17T14:51:42.426Z,64.09
2022-09-17T14:57:09.798Z,64.71
2022-09-17T15:02:33.282Z,64.76
2022-09-17T15:07:35.373Z,65.08
2022-09-17T15:12:38.967Z,65.47
2022-09-17T15:17:42.382Z,65.87
2022-09-17T15:22:50.099Z,65.41
2022-09-17T15:27:57.114Z,64.13
2022-09-17T15:33:00.167Z,63.83
2022-09-17T15:38:23.676Z,64.04
2022-09-17T15:43:31.621Z,64.82
2022-09-17T15:48:37.108Z,65.21
2022-09-17T15:53:39.019Z,65.22
2022-09-17T15:58:40.757Z,65.91
2022-09-17T16:03:45.651Z,66.62
2022-09-17T16:08:56.086Z,67.24
2022-09-17T16:14:00.336Z,67.45
2022-09-17T16:19:03.678Z,67.65
2022-09-17T16:24:25.396Z,68.09
2022-09-17T16:29:31.308Z,68.31
2022-09-17T16:34:33.429Z,68.46
2022-09-17T16:39:35.278Z,68.58
2022-09-17T16:44:37.224Z,69.18
2022-09-17T16:49:39.062Z,69.60
2022-09-17T16:54:40.961Z,69.78
2022-09-17T16:59:42.658Z,70.08
2022-09-17T17:04:44.398Z,70.50
2022-09-17T17:09:46.428Z,71.07
2022-09-17T17:14:50.165Z,71.59
2022-09-17T17:19:53.076Z,72.07
2022-09-17T17:24:55.285Z,72.78
2022-09-17T17:29:57.008Z,73.43
2022-09-17T17:34:58.848Z,73.93
2022-09-17T17:40:01.901Z,74.55
2022-09-17T17:45:05.985Z,74.97
2022-09-17T17:50:16.059Z,75.59
2022-09-17T17:55:17.957Z,76.03
2022-09-17T18:00:40.415Z,76.51
2022-09-17T18:05:58.991Z,77.42
2022-09-17T18:11:04.187Z,78.36
2022-09-17T18:16:12.110Z,78.79
2022-09-17T18:21:21.972Z,79.04
2022-09-17T18:26:28.011Z,79.37
2022-09-17T18:31:32.000Z,79.94
2022-09-17T18:36:36.409Z,80.81
2022-09-17T18:41:40.744Z,81.62
2022-09-17T18:46:43.088Z,82.12
2022-09-17T18:51:44.954Z,82.64
2022-09-17T18:56:46.733Z,83.02
2022-09-17T19:01:49.497Z,83.30
2022-09-17T19:07:11.533Z,83.66
2022-09-17T19:12:23.856Z,84.14
2022-09-17T19:17:26.294Z,84.27
2022-09-17T19:22:42.430Z,84.19
2022-09-17T19:27:54.155Z,84.00
2022-09-17T19:32:56.025Z,83.84
2022-09-17T19:37:58.945Z,83.90
2022-09-17T19:43:03.381Z,83.74
2022-09-17T19:48:05.117Z,83.73
2022-09-17T19:53:06.844Z,83.66
2022-09-17T19:58:08.633Z,83.82
2022-09-17T20:03:10.933Z,84.02
2022-09-17T20:08:12.698Z,84.29
2022-09-17T20:13:17.341Z,84.57
2022-09-17T20:18:23.289Z,85.05
2022-09-17T20:23:31.078Z,85.95
2022-09-17T20:28:37.588Z,86.22
2022-09-17T20:33:40.110Z,86.18
2022-09-17T20:39:11.491Z,86.18
2022-09-17T20:44:06.630Z,86.24
2022-09-17T20:49:08.634Z,86.28
2022-09-17T20:54:10.672Z,86.53
2022-09-17T20:59:21.384Z,86.83
2022-09-17T21:04:24.217Z,87.23
2022-09-17T21:09:26.076Z,87.47
2022-09-17T21:14:27.965Z,87.68
2022-09-17T21:19:29.856Z,87.81
2022-09-17T21:24:31.632Z,87.95
2022-09-17T21:29:33.552Z,88.11
2022-09-17T21:34:35.277Z,88.21
2022-09-17T21:39:37.334Z,88.27
2022-09-17T21:44:39.482Z,88.33
2022-09-17T21:50:01.390Z,88.31
2022-09-17T21:55:16.718Z,88.41
2022-09-17T22:00:23.189Z,88.42
2022-09-17T22:05:25.419Z,88.36
2022-09-17T22:10:28.520Z,88.41
2022-09-17T22:15:30.407Z,88.57
2022-09-17T22:20:44.927Z,88.72
2022-09-17T22:25:49.295Z,88.74
2022-09-17T22:30:54.112Z,88.74
2022-09-17T22:36:08.521Z,88.72
2022-09-17T22:41:16.018Z,88.64
2022-09-17T22:46:21.365Z,88.62
2022-09-17T22:51:24.301Z,88.57
2022-09-17T22:56:28.134Z,88.60
2022-09-17T23:01:33.870Z,88.67
2022-09-17T23:06:38.340Z,88.67
2022-09-17T23:11:48.883Z,88.71
2022-09-17T23:17:14.369Z,88.67
2022-09-17T23:22:23.296Z,88.75
2022-09-17T23:27:25.132Z,88.71
2022-09-17T23:32:27.054Z,88.72
2022-09-17T23:37:28.791Z,88.74
2022-09-17T23:42:35.802Z,88.70
2022-09-17T23:47:37.469Z,88.75
2022-09-17T23:52:39.357Z,88.77
2022-09-17T23:57:41.211Z,88.85
